x

Portlock Bank- 76nm Ene Of Kodiak, Ak (46080) Wave Buoy

12:50pm - Tue 4th Aug 2015 All times are AKDT. -8 hours from GMT.

  • Sig Wave height 5.9ft
  • Peak Period 8s
  • Average Period 5s
  • Wind
    11mph, 13mph gusts
  • Sea Temp 56°f
  • Air Temp 56°f
  • Sea Pressure 1013.4mb
  • Portlock Bank- 76nm Ene Of Kodiak, Ak
  • Portlock Bank- 76nm Ene Of Kodiak, Ak

More Historic Weather Station data

Upgrade to MSW Pro to gain access to the past 30 days of data for over 8000 Wavebouys and Weather Stations around the globe.

Join Pro

Comparision Forecast

View Surf forecast
   
Tue 08/04 12:50pm 6ft 8s 5s 11 13 mph 1013.4mb 56f 56f
11:50am 7ft 8s 6s 9
mph
1013.5mb 56f 55f
10:50am 8ft 8s 6s 11 16 mph 1013.4mb 57f 56f
9:50am 7ft 8s 6s 16 18 mph 1013.5mb 57f 57f
8:50am 7ft 7s 6s 16 20 mph 1013.6mb 58f 57f
7:50am 7ft 8s 6s 16 20 mph 1013.8mb 57f 58f
6:50am 6ft 8s 6s 13 18 mph 1014mb 57f 58f
5:50am 5ft 8s 5s 13 16 mph 1014.3mb 57f 57f
4:50am 4.5ft 7s 5s 13 18 mph 1014.6mb 57f 57f
3:50am 4.5ft 7s 5s 13 16 mph 1015.4mb 56f 57f
2:50am 4ft 7s 5s 13 16 mph 1015.7mb 56f 57f
1:50am 4ft 7s 5s 11 13 mph 1016.4mb 57f 57f
12:50am 4.5ft 6s 5s 11
mph
1016.9mb 57f 57f
Mon 08/03 11:50pm 3.5ft 6s 5s 9 11 mph 1017.3mb 58f 57f
10:50pm 3.5ft 6s 5s 11 13 mph 1017.7mb 58f 57f
9:50pm 2.5ft 12s 5s 11 16 mph 1017.8mb 58f 57f
8:50pm 2ft 11s  -  9 11 mph 1018mb 58f 58f
7:50pm 1.6ft 11s 4s 9 11 mph 1018.3mb 58f 57f
6:50pm 2ft 11s 4s 9
mph
1018.5mb 58f 57f
5:50pm 1.6ft 14s 4s 7 9 mph 1018.8mb 58f 57f
4:50pm 1.6ft 11s 4s 9 11 mph 1019.1mb 58f 58f
3:50pm 1.6ft 12s 4s 11 13 mph 1019.6mb 57f 58f
2:50pm 2ft 11s 4s 11 13 mph 1019.8mb 57f 58f
1:50pm 2ft 4s 4s 9 11 mph 1020.2mb 57f 57f
12:50pm 2.5ft 4s 4s 11 13 mph 1020.5mb 57f 57f
11:50am 2.5ft 5s 4s 11
mph
1020.5mb 57f 57f
10:50am 2.5ft 4s 4s 11 13 mph 1020.8mb 57f 57f
9:50am 2.5ft 4s 4s 11 13 mph 1020.7mb 58f 57f
8:50am 2.5ft 5s 4s 13 16 mph 1020.5mb 58f 57f
7:50am 2.5ft 5s 4s 13 18 mph 1020.7mb 57f 56f
6:50am 3.5ft 5s 4s 18 20 mph 1020.5mb 57f 56f
5:50am 3ft 5s 4s 16 20 mph 1020.2mb 57f 56f
4:50am 3.5ft 5s 4s 18 22 mph 1020.3mb 57f 55f
3:50am 3.5ft 5s 4s 16 20 mph 1020.3mb 57f 55f
2:50am 3.5ft 5s 4s 20 22 mph 1020.5mb 57f 54f
1:50am 3.5ft 5s 4s 18 22 mph 1020.6mb 57f 53f
12:50am 3.5ft 5s 4s 16 18 mph 1020.8mb 57f 53f
Sun 08/02 11:50pm 4ft 5s 5s 16 18 mph 1021mb 57f 54f
10:50pm 3.5ft 5s 4s 16 20 mph 1020.9mb 57f 54f
9:50pm 3.5ft 5s 4s 16 20 mph 1020.8mb 57f 54f
8:50pm 3.5ft 5s 4s 18 20 mph 1020.8mb 58f 54f
7:50pm 3ft 4s 3s 16 20 mph 1020.6mb 58f 54f
6:50pm 3ft 13s 4s 18 22 mph 1020.7mb 58f 55f
5:50pm 2.5ft 4s 3s 18 20 mph 1020.7mb 58f 55f
4:50pm 2.5ft 13s 4s 16 20 mph 1020.7mb 58f 55f
3:50pm 2.5ft 13s 4s 16 18 mph 1021.1mb 58f 55f
2:50pm 2.5ft 4s 4s 16 18 mph 1021.1mb 57f 54f
1:50pm 2.5ft 4s 4s 16 18 mph 1021mb 57f 54f
12:50pm 2.5ft 13s 4s 13 18 mph 1021.2mb 58f 54f
11:50am 3ft 4s 4s 13 18 mph 1020.9mb 57f 54f
10:50am 3.5ft 13s 5s 11 16 mph 1021.1mb 57f 53f
9:50am 2.5ft 13s 5s 11 13 mph 1021mb 57f 54f
8:50am 2.5ft 14s 4s 11 13 mph 1020.7mb 57f 54f
7:50am 2.5ft 14s 5s 11 16 mph 1020.7mb 58f 54f
6:50am 2.5ft 14s 5s 11 13 mph 1020.3mb 58f 55f
5:50am 2.5ft 14s 5s 11 13 mph 1020.3mb 58f 54f
4:50am 2.5ft 14s 5s 11 13 mph 1020.2mb 58f 55f
3:50am 2.5ft 14s 4s 11 13 mph 1020mb 58f 55f
2:50am 2.5ft 13s 5s 13 16 mph 1020.2mb 58f 55f
1:50am 2.5ft 14s 4s 13 16 mph 1020.2mb 57f 55f
12:50am 3ft 13s 4s 11 13 mph 1020.1mb 57f 55f
Sat 08/01 11:50pm 3ft 4s 4s 11 16 mph 1020.1mb 57f 55f
10:50pm 3.5ft 14s 5s 11 16 mph 1020.1mb 57f 55f
9:50pm 3.5ft 14s 5s 9 13 mph 1020.1mb 57f 55f
8:50pm 3.5ft 13s 5s 11 16 mph 1020.1mb 57f 55f
7:50pm 3.5ft 14s 5s 11 13 mph 1020.1mb 57f 55f
6:50pm 3ft 14s 4s 11 16 mph 1020mb 57f 55f
5:50pm 3.5ft 15s 5s 13 18 mph 1020mb 58f 55f
4:50pm 3ft 13s 4s 13 16 mph 1019.9mb 58f 55f
3:50pm 3ft 14s 4s 16 18 mph 1020mb 58f 55f
2:50pm 3ft 14s 4s 16 18 mph 1020mb 57f 55f
1:50pm 2.5ft 5s 4s 13 18 mph 1019.9mb 57f 55f
12:50pm 2.5ft 14s 4s 16 18 mph 1019.9mb 58f 55f
11:50am 3.5ft 14s 4s 13 18 mph 1019.8mb 58f 55f
10:50am 3.5ft 14s 5s 16 18 mph 1019.7mb 57f 54f
9:50am 3.5ft 15s 5s 16 18 mph 1019.4mb 57f 54f
8:50am 3.5ft 5s 4s 13 16 mph 1019.2mb 57f 55f
7:50am 3.5ft 15s 4s 13 16 mph 1018.8mb 56f 55f
6:50am 3.5ft 15s 4s 16 18 mph 1018.5mb 57f 56f
5:50am 3.5ft 4s 4s 18 20 mph 1018.1mb 57f 56f
4:50am 3ft 4s 4s 16 18 mph 1018mb 58f 56f
3:50am 3.5ft 14s 4s 18 20 mph 1017.9mb 58f 56f
2:50am 3ft 14s 4s 18 20 mph 1017.9mb 58f 56f
1:50am 3ft 15s 4s 18 20 mph 1018.1mb 58f 56f
12:50am 3ft 14s 4s 16 18 mph 1018.1mb 58f 56f
Fri 07/31 11:50pm 3.5ft 4s 4s 16 18 mph 1018.1mb 57f 56f
10:50pm 4ft 4s 4s 16 18 mph 1018.2mb 57f 56f